createdAt,value
2018-04-15T00:02:21.698Z,10.90
2018-04-15T00:04:49.150Z,11.00
2018-04-15T00:07:16.607Z,11.20
2018-04-15T00:09:44.057Z,11.20
2018-04-15T00:12:11.510Z,11.20
2018-04-15T00:14:39.734Z,11.00
2018-04-15T00:17:07.226Z,11.00
2018-04-15T00:19:34.670Z,11.00
2018-04-15T00:22:02.127Z,11.10
2018-04-15T00:24:29.573Z,11.10
2018-04-15T00:26:57.124Z,11.20
2018-04-15T00:29:24.557Z,11.20
2018-04-15T00:31:52.015Z,11.20
2018-04-15T00:34:19.470Z,11.30
2018-04-15T00:36:46.915Z,11.20
2018-04-15T00:39:14.378Z,11.30
2018-04-15T00:41:41.819Z,11.30
2018-04-15T00:44:09.257Z,11.20
2018-04-15T00:46:37.579Z,11.20
2018-04-15T00:49:05.034Z,11.20
2018-04-15T00:51:32.486Z,11.10
2018-04-15T00:54:11.753Z,11.20
2018-04-15T00:56:39.198Z,11.30
2018-04-15T00:59:06.645Z,11.30
2018-04-15T01:01:34.430Z,11.40
2018-04-15T01:04:01.878Z,11.40
2018-04-15T01:06:29.322Z,11.30
2018-04-15T01:08:56.777Z,11.30
2018-04-15T01:11:24.220Z,11.40
2018-04-15T01:13:51.685Z,11.40
2018-04-15T01:16:19.142Z,11.40
2018-04-15T01:18:46.599Z,11.50
2018-04-15T01:21:14.063Z,11.50
2018-04-15T01:23:41.528Z,11.60
2018-04-15T01:26:08.979Z,11.50
2018-04-15T01:28:36.425Z,11.50
2018-04-15T01:31:03.877Z,11.50
2018-04-15T01:33:31.330Z,11.60
2018-04-15T01:35:58.798Z,11.60
2018-04-15T01:38:26.264Z,11.70
2018-04-15T01:40:53.714Z,11.70
2018-04-15T01:43:21.156Z,11.70
2018-04-15T01:45:48.675Z,11.90
2018-04-15T01:48:16.120Z,11.90
2018-04-15T01:50:43.557Z,12.00
2018-04-15T01:53:11.009Z,12.00
2018-04-15T01:55:38.461Z,12.10
2018-04-15T01:58:05.903Z,12.00
2018-04-15T02:00:33.347Z,12.00
2018-04-15T02:03:01.150Z,12.10
2018-04-15T02:05:28.599Z,12.10
2018-04-15T02:07:56.046Z,12.10
2018-04-15T02:10:23.513Z,12.10
2018-04-15T02:12:50.945Z,12.10
2018-04-15T02:15:18.406Z,12.10
2018-04-15T02:17:45.846Z,12.30
2018-04-15T02:20:14.057Z,12.40
2018-04-15T02:22:41.521Z,12.40
2018-04-15T02:25:08.960Z,12.40
2018-04-15T02:27:37.314Z,12.40
2018-04-15T02:30:05.526Z,12.60
2018-04-15T02:32:32.969Z,12.60
2018-04-15T02:35:00.432Z,12.70
2018-04-15T02:37:27.882Z,12.70
2018-04-15T02:39:55.342Z,12.80
2018-04-15T02:42:23.210Z,12.70
2018-04-15T02:44:50.651Z,12.50
2018-04-15T02:47:18.946Z,12.50
2018-04-15T02:49:46.393Z,12.60
2018-04-15T02:52:13.831Z,12.70
2018-04-15T02:54:41.284Z,12.70
2018-04-15T02:57:09.485Z,12.60
2018-04-15T02:59:36.942Z,12.60
2018-04-15T03:02:04.399Z,12.60
2018-04-15T03:04:31.830Z,12.60
2018-04-15T03:07:00.050Z,12.80
2018-04-15T03:09:27.482Z,12.80
2018-04-15T03:11:54.943Z,12.80
2018-04-15T03:14:22.391Z,13.00
2018-04-15T03:16:49.852Z,13.10
2018-04-15T03:19:17.293Z,13.10
2018-04-15T03:21:44.734Z,13.00
2018-04-15T03:24:12.957Z,13.00
2018-04-15T03:26:40.403Z,13.00
2018-04-15T03:29:08.726Z,12.80
2018-04-15T03:31:36.932Z,12.70
2018-04-15T03:34:05.138Z,12.70
2018-04-15T03:36:32.636Z,12.70
2018-04-15T03:39:01.717Z,12.60
2018-04-15T03:41:29.167Z,12.60
2018-04-15T03:43:56.646Z,12.60
2018-04-15T03:46:24.070Z,12.60
2018-04-15T03:48:52.293Z,12.40
2018-04-15T03:51:20.509Z,12.40
2018-04-15T03:53:47.957Z,12.40
2018-04-15T03:56:15.402Z,12.40
2018-04-15T03:58:42.841Z,12.30
2018-04-15T04:01:11.058Z,12.20
2018-04-15T04:03:39.853Z,12.20
2018-04-15T04:06:07.294Z,12.00
2018-04-15T04:08:34.746Z,12.00
2018-04-15T04:11:02.194Z,12.00
2018-04-15T04:13:29.641Z,12.00
2018-04-15T04:15:57.104Z,12.10
2018-04-15T04:18:36.509Z,12.10
2018-04-15T04:21:16.711Z,12.00
2018-04-15T04:23:55.995Z,12.10
2018-04-15T04:26:23.441Z,12.10
2018-04-15T04:28:50.893Z,12.00
2018-04-15T04:31:18.346Z,11.90
2018-04-15T04:33:45.801Z,11.90
2018-04-15T04:36:13.266Z,11.80
2018-04-15T04:38:40.723Z,11.80
2018-04-15T04:41:08.693Z,11.70
2018-04-15T04:43:36.145Z,11.70
2018-04-15T04:46:03.610Z,11.60
2018-04-15T04:48:31.073Z,11.50
2018-04-15T04:50:58.514Z,11.50
2018-04-15T04:53:25.984Z,11.50
2018-04-15T04:55:54.947Z,11.30
2018-04-15T04:58:22.389Z,11.30
2018-04-15T05:00:49.849Z,11.30
2018-04-15T05:03:17.300Z,11.30
2018-04-15T05:05:44.789Z,11.30
2018-04-15T05:08:12.231Z,11.30
2018-04-15T05:10:39.686Z,11.30
2018-04-15T05:13:07.170Z,11.30
2018-04-15T05:15:34.729Z,11.20
2018-04-15T05:18:02.711Z,11.30
2018-04-15T05:20:30.172Z,11.30
2018-04-15T05:22:57.614Z,11.20
2018-04-15T05:25:25.070Z,11.30
2018-04-15T05:27:54.026Z,11.30
2018-04-15T05:30:21.493Z,11.30
2018-04-15T05:32:48.959Z,11.30
2018-04-15T05:35:16.395Z,11.20
2018-04-15T05:37:43.860Z,11.10
2018-04-15T05:40:11.310Z,11.10
2018-04-15T05:42:38.766Z,11.20
2018-04-15T05:45:06.222Z,11.10
2018-04-15T05:47:33.688Z,11.00
2018-04-15T05:50:01.802Z,11.10
2018-04-15T05:52:29.249Z,11.00
2018-04-15T05:54:56.706Z,11.10
2018-04-15T05:57:24.172Z,11.10
2018-04-15T05:59:51.621Z,11.10
2018-04-15T06:02:20.578Z,11.00
2018-04-15T06:04:48.042Z,11.00
2018-04-15T06:07:16.345Z,11.20
2018-04-15T06:09:43.801Z,11.20
2018-04-15T06:12:11.252Z,11.30
2018-04-15T06:14:38.706Z,11.30
2018-04-15T06:17:06.166Z,11.30
2018-04-15T06:19:33.614Z,11.30
2018-04-15T06:22:01.205Z,11.20
2018-04-15T06:24:28.650Z,11.20
2018-04-15T06:26:56.093Z,11.30
2018-04-15T06:29:23.546Z,11.30
2018-04-15T06:31:51.005Z,11.40
2018-04-15T06:34:18.465Z,11.50
2018-04-15T06:36:45.993Z,11.50
2018-04-15T06:39:14.153Z,11.60
2018-04-15T06:41:41.606Z,11.60
2018-04-15T06:44:09.821Z,11.60
2018-04-15T06:46:37.709Z,11.60
2018-04-15T06:49:05.166Z,11.60
2018-04-15T06:51:32.627Z,11.70
2018-04-15T06:54:00.074Z,11.80
2018-04-15T06:56:27.531Z,12.00
2018-04-15T06:58:55.753Z,12.30
2018-04-15T07:01:23.602Z,12.30
2018-04-15T07:03:51.825Z,12.50
2018-04-15T07:06:19.274Z,12.50
2018-04-15T07:08:46.733Z,12.70
2018-04-15T07:11:14.178Z,12.90
2018-04-15T07:13:41.966Z,13.30
2018-04-15T07:16:09.431Z,13.50
2018-04-15T07:18:36.886Z,13.90
2018-04-15T07:21:04.326Z,14.10
2018-04-15T07:23:31.806Z,14.20
2018-04-15T07:25:59.250Z,14.20
2018-04-15T07:28:26.693Z,14.40
2018-04-15T07:30:54.141Z,14.60
2018-04-15T07:33:21.581Z,14.80
2018-04-15T07:35:49.058Z,15.00
2018-04-15T07:38:16.507Z,15.20
2018-04-15T07:40:43.961Z,15.30
2018-04-15T07:43:11.402Z,15.30
2018-04-15T07:45:38.845Z,15.10
2018-04-15T07:48:07.101Z,14.90
2018-04-15T07:50:35.332Z,14.90
2018-04-15T07:53:02.774Z,14.90
2018-04-15T07:55:30.219Z,14.90
2018-04-15T07:57:58.427Z,15.00
2018-04-15T08:00:25.881Z,15.00
2018-04-15T08:02:53.317Z,15.00
2018-04-15T08:05:20.774Z,15.10
2018-04-15T08:07:48.236Z,15.30
2018-04-15T08:10:15.682Z,15.20
2018-04-15T08:12:44.009Z,15.80
2018-04-15T08:15:11.459Z,15.80
2018-04-15T08:17:38.902Z,16.10
2018-04-15T08:20:06.358Z,16.10
2018-04-15T08:22:33.805Z,16.20
2018-04-15T08:25:01.246Z,16.20
2018-04-15T08:27:28.690Z,16.50
2018-04-15T08:29:56.909Z,17.20
2018-04-15T08:32:24.365Z,17.10
2018-04-15T08:34:51.814Z,17.10
2018-04-15T08:37:19.268Z,17.50
2018-04-15T08:39:46.937Z,18.00
2018-04-15T08:42:14.373Z,18.90
2018-04-15T08:44:41.814Z,20.70
2018-04-15T08:47:10.032Z,21.80
2018-04-15T08:49:37.502Z,21.70
2018-04-15T08:52:04.954Z,21.60
2018-04-15T08:54:32.419Z,21.50
2018-04-15T08:56:59.892Z,21.80
2018-04-15T08:59:27.330Z,22.40
2018-04-15T09:01:54.781Z,23.50
2018-04-15T09:04:22.226Z,24.00
2018-04-15T09:06:50.106Z,23.80
2018-04-15T09:09:17.560Z,23.90
2018-04-15T09:11:45.034Z,24.10
2018-04-15T09:14:12.489Z,24.20
2018-04-15T09:16:39.947Z,23.90
2018-04-15T09:19:07.389Z,24.00
2018-04-15T09:21:35.280Z,23.00
2018-04-15T09:24:02.733Z,23.50
2018-04-15T09:26:30.249Z,24.40
2018-04-15T09:28:57.643Z,25.10
2018-04-15T09:31:25.075Z,25.30
2018-04-15T09:33:52.518Z,25.70
2018-04-15T09:36:19.994Z,26.30
2018-04-15T09:38:47.434Z,26.10
2018-04-15T09:41:14.897Z,26.20
2018-04-15T09:43:42.325Z,26.80
2018-04-15T09:46:09.806Z,27.00
2018-04-15T09:48:37.249Z,27.60
2018-04-15T09:51:05.370Z,27.60
2018-04-15T09:53:32.825Z,27.30
2018-04-15T09:56:00.266Z,26.90
2018-04-15T09:58:27.738Z,26.20
2018-04-15T10:01:00.986Z,25.70
2018-04-15T10:03:28.873Z,26.00
2018-04-15T10:05:56.322Z,26.40
2018-04-15T10:08:23.775Z,26.60
2018-04-15T10:10:51.264Z,25.80
2018-04-15T10:13:18.658Z,24.60
2018-04-15T10:15:47.466Z,25.70
2018-04-15T10:18:14.927Z,25.70
2018-04-15T10:20:42.722Z,26.70
2018-04-15T10:23:10.934Z,26.20
2018-04-15T10:25:38.374Z,26.20
2018-04-15T10:28:05.837Z,26.20
2018-04-15T10:30:33.310Z,25.80
2018-04-15T10:33:01.850Z,24.10
2018-04-15T10:35:29.298Z,24.10
2018-04-15T10:37:56.763Z,24.70
2018-04-15T10:40:24.201Z,25.20
2018-04-15T10:42:52.601Z,24.80
2018-04-15T10:45:20.045Z,25.20
2018-04-15T10:47:47.495Z,25.80
2018-04-15T10:50:14.960Z,25.40
2018-04-15T10:52:42.407Z,25.00
2018-04-15T10:55:09.854Z,25.10
2018-04-15T10:57:37.294Z,26.10
2018-04-15T11:00:05.811Z,27.70
2018-04-15T11:02:33.261Z,27.60
2018-04-15T11:05:00.770Z,26.50
2018-04-15T11:07:28.209Z,26.40
2018-04-15T11:09:55.657Z,26.30
2018-04-15T11:12:23.115Z,26.50
2018-04-15T11:14:50.571Z,26.70
2018-04-15T11:17:18.015Z,27.50
2018-04-15T11:19:45.470Z,27.60
2018-04-15T11:22:12.914Z,27.10
2018-04-15T11:24:40.371Z,26.80
2018-04-15T11:27:07.820Z,25.00
2018-04-15T11:29:35.261Z,24.20
2018-04-15T11:32:03.493Z,22.40
2018-04-15T11:34:30.935Z,22.40
2018-04-15T11:36:58.382Z,22.50
2018-04-15T11:39:25.842Z,22.60
2018-04-15T11:41:53.296Z,22.70
2018-04-15T11:44:20.748Z,23.10
2018-04-15T11:46:48.212Z,23.30
2018-04-15T11:49:15.665Z,23.40
2018-04-15T11:51:43.161Z,23.20
2018-04-15T11:54:10.558Z,22.40
2018-04-15T11:56:38.010Z,21.70
2018-04-15T11:59:05.455Z,21.60
2018-04-15T12:01:33.710Z,22.90
2018-04-15T12:04:01.679Z,22.90
2018-04-15T12:06:29.135Z,23.50
2018-04-15T12:08:56.588Z,23.00
2018-04-15T12:11:24.042Z,23.40
2018-04-15T12:13:52.020Z,23.70
2018-04-15T12:16:19.480Z,24.10
2018-04-15T12:18:46.913Z,24.80
2018-04-15T12:21:14.459Z,25.10
2018-04-15T12:23:41.898Z,25.20
2018-04-15T12:26:09.354Z,25.50
2018-04-15T12:28:36.817Z,25.80
2018-04-15T12:31:04.995Z,26.50
2018-04-15T12:33:32.457Z,27.00
2018-04-15T12:35:59.890Z,26.80
2018-04-15T12:38:27.343Z,26.50
2018-04-15T12:40:54.835Z,26.60
2018-04-15T12:43:22.249Z,27.60
2018-04-15T12:45:49.702Z,28.30
2018-04-15T12:48:18.238Z,26.00
2018-04-15T12:50:45.693Z,25.90
2018-04-15T12:53:13.131Z,25.50
2018-04-15T12:55:40.586Z,25.50
2018-04-15T12:58:08.039Z,25.00
2018-04-15T13:00:35.495Z,24.70
2018-04-15T13:03:03.503Z,24.70
2018-04-15T13:05:30.962Z,25.80
2018-04-15T13:07:59.542Z,27.10
2018-04-15T13:10:27.004Z,27.50
2018-04-15T13:12:54.459Z,26.50
2018-04-15T13:15:21.910Z,26.60
2018-04-15T13:17:49.373Z,26.80
2018-04-15T13:20:16.833Z,26.30
2018-04-15T13:22:44.266Z,24.40
2018-04-15T13:25:11.719Z,23.00
2018-04-15T13:27:39.158Z,22.40
2018-04-15T13:30:06.606Z,22.30
2018-04-15T13:32:34.045Z,22.60
2018-04-15T13:35:02.936Z,23.20
2018-04-15T13:37:31.142Z,23.40
2018-04-15T13:39:58.596Z,23.40
2018-04-15T13:42:26.051Z,23.60
2018-04-15T13:44:53.507Z,23.30
2018-04-15T13:47:20.954Z,22.90
2018-04-15T13:49:48.900Z,22.40
2018-04-15T13:52:17.113Z,22.20
2018-04-15T13:54:44.564Z,22.20
2018-04-15T13:57:12.021Z,22.20
2018-04-15T13:59:39.473Z,22.20
2018-04-15T14:02:06.927Z,22.50
2018-04-15T14:04:34.374Z,22.70
2018-04-15T14:07:02.278Z,22.90
2018-04-15T14:09:29.728Z,23.10
2018-04-15T14:11:57.189Z,23.30
2018-04-15T14:14:24.631Z,23.40
2018-04-15T14:16:52.083Z,23.50
2018-04-15T14:19:19.517Z,23.60
2018-04-15T14:21:47.749Z,23.40
2018-04-15T14:24:15.195Z,23.40
2018-04-15T14:26:42.657Z,23.30
2018-04-15T14:29:10.486Z,23.10
2018-04-15T14:31:37.934Z,23.40
2018-04-15T14:34:05.416Z,23.40
2018-04-15T14:36:32.874Z,23.40
2018-04-15T14:39:00.325Z,23.30
2018-04-15T14:41:27.774Z,23.10
2018-04-15T14:43:55.214Z,23.20
2018-04-15T14:46:23.438Z,24.20
2018-04-15T14:48:50.887Z,24.10
2018-04-15T14:51:18.337Z,24.70
2018-04-15T14:53:45.785Z,24.90
2018-04-15T14:56:13.237Z,25.20
2018-04-15T14:58:40.702Z,25.50
2018-04-15T15:01:08.143Z,25.80
2018-04-15T15:03:35.608Z,26.40
2018-04-15T15:06:03.043Z,26.50
2018-04-15T15:08:31.269Z,25.60
2018-04-15T15:10:58.733Z,25.60
2018-04-15T15:13:26.204Z,25.60
2018-04-15T15:15:53.653Z,25.50
2018-04-15T15:18:21.098Z,24.90
2018-04-15T15:20:48.570Z,24.10
2018-04-15T15:23:16.011Z,23.70
2018-04-15T15:25:43.484Z,23.50
2018-04-15T15:28:11.012Z,23.40
2018-04-15T15:30:38.390Z,23.60
2018-04-15T15:33:05.835Z,23.80
2018-04-15T15:35:33.600Z,23.60
2018-04-15T15:38:01.051Z,23.60
2018-04-15T15:40:28.494Z,23.20
2018-04-15T15:42:55.953Z,23.20
2018-04-15T15:45:23.394Z,23.00
2018-04-15T15:47:51.298Z,23.10
2018-04-15T15:50:18.795Z,23.20
2018-04-15T15:52:47.008Z,23.50
2018-04-15T15:55:14.461Z,23.50
2018-04-15T15:57:41.906Z,23.80
2018-04-15T16:00:09.368Z,23.70
2018-04-15T16:02:36.814Z,23.50
2018-04-15T16:05:04.254Z,22.90
2018-04-15T16:07:32.494Z,22.70
2018-04-15T16:09:59.954Z,22.70
2018-04-15T16:12:27.381Z,23.00
2018-04-15T16:14:54.849Z,23.30
2018-04-15T16:17:22.295Z,22.80
2018-04-15T16:19:49.747Z,22.50
2018-04-15T16:22:17.223Z,22.20
2018-04-15T16:24:44.662Z,22.00
2018-04-15T16:27:12.247Z,22.30
2018-04-15T16:29:39.682Z,22.40
2018-04-15T16:32:07.189Z,22.40
2018-04-15T16:34:34.649Z,22.40
2018-04-15T16:37:02.586Z,22.60
2018-04-15T16:39:30.040Z,22.50
2018-04-15T16:41:57.481Z,22.60
2018-04-15T16:44:24.928Z,22.50
2018-04-15T16:46:52.394Z,22.50
2018-04-15T16:49:19.834Z,22.50
2018-04-15T16:51:47.286Z,22.40
2018-04-15T16:54:14.729Z,22.40
2018-04-15T16:56:42.961Z,22.00
2018-04-15T16:59:10.415Z,21.90
2018-04-15T17:01:37.864Z,21.80
2018-04-15T17:04:05.314Z,21.70
2018-04-15T17:06:32.771Z,21.60
2018-04-15T17:09:00.218Z,21.60
2018-04-15T17:11:27.666Z,21.50
2018-04-15T17:13:55.114Z,21.40
2018-04-15T17:16:22.566Z,21.30
2018-04-15T17:18:50.786Z,21.10
2018-04-15T17:21:18.232Z,21.10
2018-04-15T17:23:45.694Z,21.00
2018-04-15T17:26:13.143Z,20.90
2018-04-15T17:28:40.590Z,20.80
2018-04-15T17:31:08.029Z,20.70
2018-04-15T17:33:35.486Z,20.60
2018-04-15T17:36:03.546Z,20.40
2018-04-15T17:38:31.750Z,20.10
2018-04-15T17:40:59.243Z,20.10
2018-04-15T17:43:26.673Z,19.80
2018-04-15T17:45:54.132Z,19.60
2018-04-15T17:48:21.581Z,19.50
2018-04-15T17:50:49.039Z,19.50
2018-04-15T17:53:16.475Z,19.40
2018-04-15T17:55:43.921Z,19.30
2018-04-15T17:58:12.126Z,19.20
2018-04-15T18:00:39.683Z,19.20
2018-04-15T18:03:07.121Z,19.20
2018-04-15T18:05:34.622Z,19.10
2018-04-15T18:08:03.643Z,18.90
2018-04-15T18:10:31.082Z,18.90
2018-04-15T18:12:58.526Z,18.80
2018-04-15T18:15:26.749Z,18.80
2018-04-15T18:17:54.973Z,18.60
2018-04-15T18:20:22.424Z,18.60
2018-04-15T18:22:49.866Z,18.60
2018-04-15T18:25:17.337Z,18.60
2018-04-15T18:27:44.812Z,18.50
2018-04-15T18:30:12.236Z,18.40
2018-04-15T18:32:39.782Z,18.30
2018-04-15T18:35:07.226Z,18.10
2018-04-15T18:37:35.434Z,17.60
2018-04-15T18:40:03.549Z,17.60
2018-04-15T18:42:30.998Z,17.60
2018-04-15T18:44:58.461Z,17.50
2018-04-15T18:47:25.899Z,17.50
2018-04-15T18:49:53.429Z,17.50
2018-04-15T18:52:20.865Z,17.40
2018-04-15T18:54:48.326Z,17.40
2018-04-15T18:57:16.544Z,17.20
2018-04-15T18:59:44.006Z,17.10
2018-04-15T19:02:11.465Z,16.80
2018-04-15T19:04:38.899Z,16.50
2018-04-15T19:07:06.347Z,16.10
2018-04-15T19:09:34.109Z,15.80
2018-04-15T19:12:01.555Z,15.80
2018-04-15T19:14:28.998Z,15.80
2018-04-15T19:16:57.218Z,16.10
2018-04-15T19:19:24.655Z,16.10
2018-04-15T19:21:52.113Z,16.20
2018-04-15T19:24:19.568Z,16.00
2018-04-15T19:26:46.998Z,15.70
2018-04-15T19:29:15.225Z,15.50
2018-04-15T19:31:43.578Z,15.50
2018-04-15T19:34:11.331Z,15.40
2018-04-15T19:36:38.763Z,15.30
2018-04-15T19:39:06.975Z,15.30
2018-04-15T19:41:34.439Z,15.30
2018-04-15T19:44:02.539Z,15.30
2018-04-15T19:46:29.995Z,15.30
2018-04-15T19:48:57.434Z,15.30
2018-04-15T19:51:24.890Z,15.40
2018-04-15T19:53:52.333Z,15.60
2018-04-15T19:56:19.789Z,15.60
2018-04-15T19:58:47.230Z,15.50
2018-04-15T20:01:14.683Z,15.20
2018-04-15T20:03:42.490Z,15.10
2018-04-15T20:06:09.944Z,15.10
2018-04-15T20:08:37.390Z,15.10
2018-04-15T20:11:04.885Z,15.20
2018-04-15T20:13:32.290Z,15.10
2018-04-15T20:15:59.757Z,15.10
2018-04-15T20:18:27.230Z,15.00
2018-04-15T20:20:54.686Z,15.10
2018-04-15T20:23:22.154Z,15.20
2018-04-15T20:25:49.599Z,15.40
2018-04-15T20:28:17.054Z,15.40
2018-04-15T20:30:44.505Z,15.50
2018-04-15T20:33:11.983Z,15.50
2018-04-15T20:35:39.430Z,15.50
2018-04-15T20:38:06.877Z,15.40
2018-04-15T20:40:34.330Z,15.40
2018-04-15T20:43:01.771Z,15.50
2018-04-15T20:45:29.227Z,15.50
2018-04-15T20:47:57.626Z,15.40
2018-04-15T20:50:25.073Z,15.40
2018-04-15T20:52:52.525Z,15.20
2018-04-15T20:55:20.008Z,15.10
2018-04-15T20:57:47.437Z,14.90
2018-04-15T21:00:15.234Z,14.70
2018-04-15T21:02:42.679Z,14.40
2018-04-15T21:05:10.117Z,14.30
2018-04-15T21:07:37.574Z,14.10
2018-04-15T21:10:05.015Z,13.90
2018-04-15T21:12:32.458Z,13.80
2018-04-15T21:15:00.679Z,13.50
2018-04-15T21:17:28.120Z,13.50
2018-04-15T21:19:55.582Z,13.30
2018-04-15T21:22:23.082Z,13.20
2018-04-15T21:24:50.538Z,13.10
2018-04-15T21:27:19.485Z,12.90
2018-04-15T21:29:46.941Z,12.90
2018-04-15T21:32:14.396Z,13.00
2018-04-15T21:34:41.855Z,12.80
2018-04-15T21:37:09.387Z,12.90
2018-04-15T21:39:37.593Z,12.50
2018-04-15T21:42:05.042Z,12.50
2018-04-15T21:44:32.500Z,12.20
2018-04-15T21:46:59.957Z,12.20
2018-04-15T21:49:27.834Z,12.00
2018-04-15T21:51:55.282Z,12.00
2018-04-15T21:54:22.721Z,12.20
2018-04-15T21:56:50.180Z,12.30
2018-04-15T21:59:17.642Z,12.40
2018-04-15T22:01:45.090Z,12.50
2018-04-15T22:04:12.530Z,12.50
2018-04-15T22:06:40.741Z,12.40
2018-04-15T22:09:08.186Z,12.40
2018-04-15T22:11:47.382Z,12.40
2018-04-15T22:14:14.826Z,12.40
2018-04-15T22:16:42.276Z,12.60
2018-04-15T22:19:09.735Z,12.60
2018-04-15T22:21:37.181Z,12.60
2018-04-15T22:24:04.634Z,12.70
2018-04-15T22:26:32.095Z,12.80
2018-04-15T22:28:59.533Z,12.70
2018-04-15T22:31:26.986Z,12.70
2018-04-15T22:33:54.441Z,12.70
2018-04-15T22:36:21.899Z,12.70
2018-04-15T22:38:49.353Z,12.80
2018-04-15T22:41:16.801Z,12.90
2018-04-15T22:43:44.354Z,12.80
2018-04-15T22:46:11.801Z,12.80
2018-04-15T22:48:44.938Z,12.30
2018-04-15T22:51:12.389Z,12.20
2018-04-15T22:53:39.833Z,12.10
2018-04-15T22:56:09.188Z,12.10
2018-04-15T22:58:42.793Z,12.20
2018-04-15T23:01:10.998Z,12.30
2018-04-15T23:03:39.417Z,12.30
2018-04-15T23:06:06.870Z,12.30
2018-04-15T23:08:34.310Z,12.40
2018-04-15T23:11:01.769Z,12.40
2018-04-15T23:13:29.215Z,12.40
2018-04-15T23:15:58.494Z,12.40
2018-04-15T23:18:25.949Z,12.40
2018-04-15T23:20:54.168Z,12.40
2018-04-15T23:23:22.154Z,12.40
2018-04-15T23:25:49.610Z,12.30
2018-04-15T23:28:17.066Z,12.30
2018-04-15T23:30:44.506Z,12.20
2018-04-15T23:33:11.975Z,12.00
2018-04-15T23:35:39.417Z,11.90
2018-04-15T23:38:06.867Z,11.70
2018-04-15T23:40:34.318Z,11.70
2018-04-15T23:43:02.622Z,11.80
2018-04-15T23:45:30.069Z,11.80
2018-04-15T23:47:57.518Z,11.70
2018-04-15T23:50:24.971Z,11.50
2018-04-15T23:52:52.834Z,11.60
2018-04-15T23:55:20.294Z,11.70
2018-04-15T23:57:47.858Z,11.90
